Granite Quarry, North Carolina
Current Conditions -  °F | °C
As of 8:35 AM on Friday 28 Nov 2014 (Local Time) from KRUQ Reporting Station
Clear Clear  
Wind Chill: 26°   Ceiling: Unl
Heat Index: 31°   Visibility: 10mi
Dew Point: 19°   Wind: 5mph
Humidity: 61%   Direction: 330°NNW
Pressure: 30.37"   Gusts: NA
Location:  35.61°N, 80.45°W
Report Text: KRUQ 281335Z AUTO 33004KT 10SM CLR 00/M07 A3037 RMK AO2 T10051071
Loading
Personal Weather Stations






























Interactive Weather Map New forecast layout! Learn more

10-Day Weather Forecast

Advertisements
Track Severe Weather on mobile